createdAt,value
2023-02-03T00:00:28.703Z,3.60
2023-02-03T00:03:13.844Z,3.17
2023-02-03T00:06:01.375Z,3.60
2023-02-03T00:08:46.836Z,4.28
2023-02-03T00:11:32.480Z,4.40
2023-02-03T00:14:17.813Z,5.80
2023-02-03T00:17:03.064Z,5.00
2023-02-03T00:19:49.989Z,5.72
2023-02-03T00:22:35.423Z,4.55
2023-02-03T00:25:21.483Z,4.28
2023-02-03T00:28:06.576Z,4.20
2023-02-03T00:30:54.002Z,4.65
2023-02-03T00:33:39.305Z,5.78
2023-02-03T00:36:25.764Z,4.32
2023-02-03T00:39:10.999Z,4.55
2023-02-03T00:41:56.411Z,6.28
2023-02-03T00:44:41.702Z,3.92
2023-02-03T00:47:27.245Z,4.03
2023-02-03T00:50:12.600Z,5.05
2023-02-03T00:52:57.871Z,4.88
2023-02-03T00:55:43.782Z,4.55
2023-02-03T00:58:28.813Z,4.57
2023-02-03T01:01:14.434Z,4.20
2023-02-03T01:04:00.044Z,4.25
2023-02-03T01:06:45.350Z,4.65
2023-02-03T01:09:34.668Z,4.78
2023-02-03T01:12:20.399Z,5.40
2023-02-03T01:15:05.962Z,5.07
2023-02-03T01:17:51.183Z,5.50
2023-02-03T01:20:36.541Z,5.75
2023-02-03T01:23:21.941Z,5.40
2023-02-03T01:26:12.958Z,6.47
2023-02-03T01:28:59.641Z,5.03
2023-02-03T01:31:45.163Z,5.78
2023-02-03T01:34:30.624Z,6.13
2023-02-03T01:37:17.878Z,6.18
2023-02-03T01:40:04.261Z,6.20
2023-02-03T01:42:49.599Z,6.53
2023-02-03T01:45:34.838Z,6.70
2023-02-03T01:48:20.159Z,6.55
2023-02-03T01:51:05.674Z,6.65
2023-02-03T01:53:53.246Z,5.65
2023-02-03T01:56:42.372Z,5.88
2023-02-03T01:59:28.901Z,6.18
2023-02-03T02:02:14.397Z,6.32
2023-02-03T02:05:09.414Z,6.82
2023-02-03T02:07:56.672Z,6.30
2023-02-03T02:10:42.283Z,6.57
2023-02-03T02:13:31.417Z,6.53
2023-02-03T02:16:39.370Z,5.65
2023-02-03T02:20:07.189Z,7.13
2023-02-03T02:23:20.021Z,5.13
2023-02-03T02:26:17.061Z,5.57
2023-02-03T02:29:16.626Z,6.05
2023-02-03T02:32:22.139Z,6.03
2023-02-03T02:35:43.913Z,5.38
2023-02-03T02:38:42.091Z,4.78
2023-02-03T02:41:45.303Z,5.43
2023-02-03T02:44:35.352Z,6.40
2023-02-03T02:47:22.418Z,6.28
2023-02-03T02:50:12.083Z,6.78
2023-02-03T02:52:58.058Z,6.78
2023-02-03T02:55:45.488Z,6.88
2023-02-03T02:58:33.861Z,6.65
2023-02-03T03:01:19.413Z,7.32
2023-02-03T03:04:07.536Z,7.43
2023-02-03T03:07:12.716Z,7.70
2023-02-03T03:10:02.798Z,8.48
2023-02-03T03:12:54.151Z,8.38
2023-02-03T03:15:41.441Z,8.98
2023-02-03T03:18:33.535Z,8.00
2023-02-03T03:21:24.264Z,8.60
2023-02-03T03:24:14.128Z,8.18
2023-02-03T03:27:13.667Z,7.13
2023-02-03T03:30:05.230Z,8.05
2023-02-03T03:32:50.807Z,7.90
2023-02-03T03:35:45.626Z,7.10
2023-02-03T03:38:44.610Z,7.35
2023-02-03T03:41:47.298Z,5.75
2023-02-03T03:45:00.686Z,7.05
2023-02-03T03:47:54.736Z,6.93
2023-02-03T03:50:55.196Z,6.05
2023-02-03T03:53:44.485Z,6.72
2023-02-03T03:56:38.862Z,5.22
2023-02-03T03:59:27.692Z,5.47
2023-02-03T04:02:14.503Z,6.32
2023-02-03T04:05:02.649Z,5.28
2023-02-03T04:07:48.431Z,5.22
2023-02-03T04:10:36.141Z,4.85
2023-02-03T04:13:21.637Z,5.93
2023-02-03T04:16:07.255Z,6.57
2023-02-03T04:18:52.716Z,6.25
2023-02-03T04:21:37.900Z,5.78
2023-02-03T04:24:23.281Z,6.20
2023-02-03T04:27:08.833Z,6.45
2023-02-03T04:29:54.078Z,6.03
2023-02-03T04:32:40.012Z,6.03
2023-02-03T04:35:25.041Z,6.35
2023-02-03T04:38:10.374Z,6.22
2023-02-03T04:40:55.699Z,6.82
2023-02-03T04:43:41.085Z,6.38
2023-02-03T04:46:26.480Z,6.13
2023-02-03T04:49:11.831Z,5.78
2023-02-03T04:51:57.557Z,8.00
2023-02-03T04:54:42.643Z,5.75
2023-02-03T04:57:28.065Z,6.03
2023-02-03T05:00:14.133Z,6.13
2023-02-03T05:02:59.403Z,5.88
2023-02-03T05:05:45.024Z,5.03
2023-02-03T05:08:30.585Z,6.68
2023-02-03T05:11:16.038Z,5.97
2023-02-03T05:14:01.467Z,5.68
2023-02-03T05:16:47.015Z,5.75
2023-02-03T05:19:32.221Z,5.28
2023-02-03T05:22:17.504Z,4.90
2023-02-03T05:25:03.454Z,4.80
2023-02-03T05:27:48.929Z,4.80
2023-02-03T05:30:34.318Z,4.85
2023-02-03T05:33:20.121Z,5.10
2023-02-03T05:36:05.477Z,3.28
2023-02-03T05:38:50.917Z,3.90
2023-02-03T05:41:56.581Z,4.00
2023-02-03T05:44:42.630Z,3.90
2023-02-03T05:47:28.020Z,3.60
2023-02-03T05:50:13.438Z,4.25
2023-02-03T05:53:00.143Z,3.85
2023-02-03T05:55:45.776Z,3.55
2023-02-03T05:58:30.917Z,4.28
2023-02-03T06:01:17.033Z,3.42
2023-02-03T06:04:02.973Z,3.88
2023-02-03T06:06:48.207Z,3.50
2023-02-03T06:09:33.564Z,3.45
2023-02-03T06:12:19.615Z,3.30
2023-02-03T06:15:05.121Z,3.00
2023-02-03T06:17:50.313Z,2.90
2023-02-03T06:20:35.978Z,3.17
2023-02-03T06:23:20.999Z,3.10
2023-02-03T06:26:06.393Z,3.40
2023-02-03T06:28:51.873Z,2.78
2023-02-03T06:31:37.462Z,2.78
2023-02-03T06:34:22.617Z,3.05
2023-02-03T06:37:08.120Z,2.78
2023-02-03T06:39:53.341Z,2.75
2023-02-03T06:42:38.706Z,2.60
2023-02-03T06:45:24.888Z,2.22
2023-02-03T06:48:09.863Z,2.28
2023-02-03T06:50:55.842Z,2.40
2023-02-03T06:53:41.134Z,2.28
2023-02-03T06:56:26.590Z,2.50
2023-02-03T06:59:11.885Z,2.30
2023-02-03T07:01:57.267Z,1.90
2023-02-03T07:04:44.987Z,1.70
2023-02-03T07:07:32.331Z,2.28
2023-02-03T07:10:18.051Z,3.53
2023-02-03T07:13:05.374Z,1.60
2023-02-03T07:15:50.957Z,2.50
2023-02-03T07:18:46.785Z,2.13
2023-02-03T07:21:32.747Z,1.98
2023-02-03T07:24:17.720Z,1.73
2023-02-03T07:27:04.588Z,2.30
2023-02-03T07:29:49.991Z,2.35
2023-02-03T07:32:35.398Z,2.53
2023-02-03T07:35:20.949Z,2.17
2023-02-03T07:38:05.982Z,2.10
2023-02-03T07:40:51.297Z,2.58
2023-02-03T07:43:36.745Z,2.85
2023-02-03T07:46:22.110Z,2.38
2023-02-03T07:49:08.198Z,2.40
2023-02-03T07:51:53.382Z,2.38
2023-02-03T07:54:38.671Z,1.90
2023-02-03T07:57:24.117Z,2.03
2023-02-03T08:00:11.851Z,1.92
2023-02-03T08:02:56.811Z,2.50
2023-02-03T08:05:42.205Z,2.40
2023-02-03T08:08:27.490Z,1.73
2023-02-03T08:11:12.965Z,2.55
2023-02-03T08:13:58.293Z,2.40
2023-02-03T08:16:43.558Z,2.08
2023-02-03T08:19:29.191Z,2.30
2023-02-03T08:22:16.552Z,2.00
2023-02-03T08:25:02.290Z,3.22
2023-02-03T08:27:47.427Z,2.60
2023-02-03T08:30:32.682Z,2.28
2023-02-03T08:33:18.116Z,2.70
2023-02-03T08:36:05.791Z,2.58
2023-02-03T08:38:52.333Z,2.70
2023-02-03T08:41:37.770Z,3.35
2023-02-03T08:44:23.103Z,2.70
2023-02-03T08:47:08.432Z,2.90
2023-02-03T08:49:53.773Z,2.72
2023-02-03T08:52:39.683Z,2.60
2023-02-03T08:55:25.252Z,2.75
2023-02-03T08:58:10.535Z,2.60
2023-02-03T09:00:55.914Z,2.67
2023-02-03T09:03:41.344Z,3.10
2023-02-03T09:06:26.623Z,3.10
2023-02-03T09:09:11.984Z,3.30
2023-02-03T09:12:02.043Z,2.50
2023-02-03T09:14:47.298Z,2.58
2023-02-03T09:17:32.740Z,3.97
2023-02-03T09:20:18.018Z,2.65
2023-02-03T09:23:03.636Z,3.20
2023-02-03T09:25:49.633Z,2.53
2023-02-03T09:28:35.872Z,2.38
2023-02-03T09:31:21.166Z,2.40
2023-02-03T09:34:06.289Z,2.72
2023-02-03T09:36:51.678Z,3.15
2023-02-03T09:39:37.102Z,2.45
2023-02-03T09:42:41.734Z,2.30
2023-02-03T09:45:28.898Z,2.30
2023-02-03T09:48:21.205Z,2.58
2023-02-03T09:51:15.221Z,2.42
2023-02-03T09:54:23.449Z,3.92
2023-02-03T09:57:21.777Z,3.35
2023-02-03T10:00:29.708Z,3.28
2023-02-03T10:03:43.580Z,4.22
2023-02-03T10:06:46.220Z,2.90
2023-02-03T10:09:47.929Z,2.85
2023-02-03T10:13:02.366Z,2.75
2023-02-03T10:16:16.059Z,2.95
2023-02-03T10:19:07.073Z,3.25
2023-02-03T10:21:59.445Z,2.17
2023-02-03T10:24:52.402Z,2.70
2023-02-03T10:27:38.611Z,2.70
2023-02-03T10:30:34.125Z,3.17
2023-02-03T10:33:19.993Z,2.53
2023-02-03T10:36:14.444Z,2.47
2023-02-03T10:39:12.279Z,2.65
2023-02-03T10:41:57.727Z,2.45
2023-02-03T10:44:50.098Z,2.55
2023-02-03T10:47:41.292Z,2.65
2023-02-03T10:50:33.409Z,3.03
2023-02-03T10:53:18.458Z,3.63
2023-02-03T10:56:15.967Z,2.70
2023-02-03T10:59:01.344Z,2.92
2023-02-03T11:01:49.145Z,2.55
2023-02-03T11:04:35.026Z,2.78
2023-02-03T11:07:30.242Z,2.97
2023-02-03T11:10:30.971Z,2.85
2023-02-03T11:13:24.983Z,2.80
2023-02-03T11:16:18.471Z,3.33
2023-02-03T11:19:16.882Z,3.53
2023-02-03T11:22:02.109Z,3.72
2023-02-03T11:24:47.551Z,2.97
2023-02-03T11:27:33.692Z,2.95
2023-02-03T11:30:27.978Z,2.53
2023-02-03T11:33:20.138Z,2.40
2023-02-03T11:36:05.701Z,2.80
2023-02-03T11:38:50.587Z,2.90
2023-02-03T11:41:40.148Z,3.70
2023-02-03T11:44:29.476Z,3.08
2023-02-03T11:47:16.870Z,2.50
2023-02-03T11:50:11.145Z,2.50
2023-02-03T11:53:24.089Z,2.25
2023-02-03T11:56:32.352Z,2.17
2023-02-03T11:59:25.798Z,2.25
2023-02-03T12:02:26.225Z,2.72
2023-02-03T12:05:22.009Z,2.22
2023-02-03T12:08:13.293Z,2.00
2023-02-03T12:11:27.171Z,2.17
2023-02-03T12:14:19.424Z,2.03
2023-02-03T12:17:15.253Z,2.25
2023-02-03T12:20:25.629Z,2.00
2023-02-03T12:23:19.537Z,1.95
2023-02-03T12:26:23.036Z,2.42
2023-02-03T12:29:19.123Z,2.55
2023-02-03T12:32:25.063Z,2.08
2023-02-03T12:35:33.329Z,2.70
2023-02-03T12:38:31.369Z,2.00
2023-02-03T12:41:27.169Z,2.33
2023-02-03T12:44:50.644Z,2.15
2023-02-03T12:47:40.657Z,2.90
2023-02-03T12:50:44.680Z,2.33
2023-02-03T12:53:38.293Z,2.28
2023-02-03T12:56:30.050Z,2.25
2023-02-03T12:59:23.383Z,1.45
2023-02-03T13:02:21.920Z,1.58
2023-02-03T13:05:23.440Z,1.35
2023-02-03T13:08:26.505Z,1.20
2023-02-03T13:11:29.972Z,1.60
2023-02-03T13:14:31.684Z,1.65
2023-02-03T13:17:26.133Z,1.30
2023-02-03T13:20:20.321Z,1.90
2023-02-03T13:23:11.079Z,1.58
2023-02-03T13:25:56.314Z,1.70
2023-02-03T13:29:09.437Z,2.85
2023-02-03T13:32:08.918Z,2.20
2023-02-03T13:35:24.488Z,1.20
2023-02-03T13:38:22.082Z,1.35
2023-02-03T13:41:22.580Z,1.42
2023-02-03T13:44:13.497Z,1.83
2023-02-03T13:46:59.623Z,1.42
2023-02-03T13:49:50.986Z,1.73
2023-02-03T13:52:56.887Z,1.65
2023-02-03T13:55:45.076Z,1.55
2023-02-03T13:58:35.174Z,1.50
2023-02-03T14:01:30.429Z,1.25
2023-02-03T14:04:24.881Z,1.20
2023-02-03T14:07:39.155Z,2.00
2023-02-03T14:10:24.884Z,1.05
2023-02-03T14:13:21.472Z,1.10
2023-02-03T14:16:25.548Z,2.15
2023-02-03T14:19:13.225Z,0.90
2023-02-03T14:22:05.473Z,1.15
2023-02-03T14:24:52.464Z,1.15
2023-02-03T14:27:37.971Z,1.23
2023-02-03T14:30:23.234Z,1.00
2023-02-03T14:33:08.513Z,1.10
2023-02-03T14:35:54.130Z,1.10
2023-02-03T14:38:39.340Z,0.70
2023-02-03T14:41:52.684Z,1.00
2023-02-03T14:44:58.730Z,0.70
2023-02-03T14:48:06.846Z,1.00
2023-02-03T14:50:58.104Z,0.70
2023-02-03T14:54:12.304Z,0.80
2023-02-03T14:57:16.296Z,0.70
2023-02-03T15:00:05.865Z,0.80
2023-02-03T15:03:12.207Z,0.98
2023-02-03T15:06:03.818Z,0.70
2023-02-03T15:08:49.150Z,0.90
2023-02-03T15:11:34.612Z,0.80
2023-02-03T15:14:31.075Z,0.90
2023-02-03T15:17:27.994Z,1.00
2023-02-03T15:20:33.946Z,0.90
2023-02-03T15:23:38.531Z,0.80
2023-02-03T15:26:27.355Z,0.80
2023-02-03T15:29:37.868Z,1.10
2023-02-03T15:32:37.481Z,1.30
2023-02-03T15:35:25.312Z,0.70
2023-02-03T15:38:34.237Z,1.00
2023-02-03T15:41:25.055Z,0.68
2023-02-03T15:44:24.175Z,0.70
2023-02-03T15:47:30.103Z,0.75
2023-02-03T15:50:44.519Z,0.80
2023-02-03T15:53:47.119Z,0.80
2023-02-03T15:56:55.529Z,0.60
2023-02-03T15:59:46.113Z,0.80
2023-02-03T16:02:41.198Z,1.17
2023-02-03T16:05:33.166Z,1.02
2023-02-03T16:08:35.827Z,1.00
2023-02-03T16:11:27.084Z,1.15
2023-02-03T16:14:33.443Z,1.13
2023-02-03T16:17:36.594Z,1.23
2023-02-03T16:20:30.929Z,1.50
2023-02-03T16:23:27.471Z,2.10
2023-02-03T16:26:17.895Z,1.15
2023-02-03T16:29:27.551Z,1.38
2023-02-03T16:32:37.749Z,1.50
2023-02-03T16:35:42.336Z,1.15
2023-02-03T16:38:46.327Z,1.83
2023-02-03T16:41:50.870Z,1.63
2023-02-03T16:44:54.769Z,1.73
2023-02-03T16:47:58.674Z,1.50
2023-02-03T16:50:59.322Z,1.52
2023-02-03T16:53:48.054Z,1.60
2023-02-03T16:56:33.104Z,1.65
2023-02-03T16:59:18.663Z,2.05
2023-02-03T17:02:04.037Z,1.67
2023-02-03T17:04:49.344Z,2.10
2023-02-03T17:07:34.714Z,1.77
2023-02-03T17:10:19.944Z,2.08
2023-02-03T17:13:05.837Z,1.60
2023-02-03T17:15:55.434Z,1.52
2023-02-03T17:18:40.913Z,1.50
2023-02-03T17:21:28.392Z,1.50
2023-02-03T17:24:14.871Z,1.63
2023-02-03T17:27:00.200Z,1.55
2023-02-03T17:29:45.521Z,1.80
2023-02-03T17:32:30.967Z,2.63
2023-02-03T17:35:16.417Z,2.58
2023-02-03T17:38:01.937Z,2.20
2023-02-03T17:55:50.737Z,1.92
2023-02-03T17:58:36.125Z,1.45
2023-02-03T18:01:21.801Z,2.25
2023-02-03T18:04:08.823Z,1.55
2023-02-03T18:06:54.459Z,2.20
2023-02-03T18:09:39.506Z,2.40
2023-02-03T18:12:24.932Z,2.78
2023-02-03T18:15:10.355Z,2.60
2023-02-03T18:17:55.720Z,1.80
2023-02-03T18:20:41.074Z,2.03
2023-02-03T18:23:26.392Z,2.35
2023-02-03T18:26:12.998Z,1.80
2023-02-03T18:28:58.598Z,2.63
2023-02-03T18:31:44.212Z,2.47
2023-02-03T18:34:29.408Z,2.65
2023-02-03T18:37:14.736Z,2.45
2023-02-03T18:40:00.672Z,2.40
2023-02-03T18:42:45.791Z,2.85
2023-02-03T18:45:34.363Z,3.15
2023-02-03T18:48:19.713Z,2.03
2023-02-03T18:51:10.103Z,3.05
2023-02-03T18:53:59.787Z,2.53
2023-02-03T18:56:46.348Z,3.85
2023-02-03T18:59:31.637Z,3.70
2023-02-03T19:02:17.000Z,2.17
2023-02-03T19:05:02.506Z,2.70
2023-02-03T19:07:47.997Z,1.88
2023-02-03T19:10:33.230Z,2.35
2023-02-03T19:13:19.823Z,2.33
2023-02-03T19:16:06.770Z,3.70
2023-02-03T19:18:52.165Z,2.25
2023-02-03T19:21:37.621Z,3.30
2023-02-03T19:24:24.832Z,3.20
2023-02-03T19:27:09.837Z,2.15
2023-02-03T19:29:54.953Z,2.28
2023-02-03T19:32:40.315Z,3.33
2023-02-03T19:35:26.023Z,3.05
2023-02-03T19:38:11.106Z,2.50
2023-02-03T19:40:56.767Z,3.10
2023-02-03T19:43:41.906Z,1.65
2023-02-03T19:46:31.697Z,2.15
2023-02-03T19:49:17.040Z,2.15
2023-02-03T19:52:02.078Z,2.40
2023-02-03T19:54:47.690Z,3.03
2023-02-03T19:57:33.174Z,2.33
2023-02-03T20:00:18.979Z,2.55
2023-02-03T20:03:04.506Z,1.90
2023-02-03T20:05:50.898Z,1.85
2023-02-03T20:08:36.358Z,2.03
2023-02-03T20:11:21.997Z,2.03
2023-02-03T20:14:07.405Z,2.22
2023-02-03T20:16:52.697Z,7.10
2023-02-03T20:19:37.988Z,5.22
2023-02-03T20:22:23.569Z,2.60
2023-02-03T20:25:09.125Z,2.10
2023-02-03T20:27:56.716Z,3.25
2023-02-03T20:30:43.746Z,2.38
2023-02-03T20:33:30.844Z,2.92
2023-02-03T20:36:16.303Z,2.17
2023-02-03T20:39:01.783Z,3.40
2023-02-03T20:41:48.694Z,2.45
2023-02-03T20:44:35.137Z,2.67
2023-02-03T20:47:22.395Z,2.47
2023-02-03T20:50:21.719Z,4.03
2023-02-03T20:53:12.997Z,2.63
2023-02-03T20:56:01.344Z,3.00
2023-02-03T20:58:46.745Z,2.40
2023-02-03T21:01:33.126Z,1.73
2023-02-03T21:04:37.746Z,2.83
2023-02-03T21:07:23.825Z,3.17
2023-02-03T21:10:20.071Z,3.38
2023-02-03T21:13:22.146Z,2.38
2023-02-03T21:16:21.724Z,2.20
2023-02-03T21:19:14.641Z,1.90
2023-02-03T21:22:13.316Z,2.30
2023-02-03T21:25:00.834Z,1.80
2023-02-03T21:27:46.994Z,2.45
2023-02-03T21:30:35.009Z,2.22
2023-02-03T21:33:41.631Z,2.92
2023-02-03T21:36:34.034Z,3.38
2023-02-03T21:39:28.211Z,2.17
2023-02-03T21:42:41.715Z,2.40
2023-02-03T21:45:43.277Z,1.85
2023-02-03T21:48:32.066Z,2.83
2023-02-03T21:51:20.690Z,2.15
2023-02-03T21:54:34.101Z,2.42
2023-02-03T21:57:20.697Z,2.00
2023-02-03T22:00:37.165Z,2.72
2023-02-03T22:03:30.421Z,3.28
2023-02-03T22:06:23.785Z,1.98
2023-02-03T22:09:12.936Z,1.77
2023-02-03T22:11:59.535Z,2.47
2023-02-03T22:14:45.697Z,2.00
2023-02-03T22:17:31.149Z,2.28
2023-02-03T22:20:16.743Z,3.33
2023-02-03T22:23:01.989Z,2.22
2023-02-03T22:25:47.766Z,2.15
2023-02-03T22:28:33.081Z,2.45
2023-02-03T22:31:19.823Z,1.95
2023-02-03T22:34:05.397Z,1.80
2023-02-03T22:36:50.719Z,2.90
2023-02-03T22:39:36.070Z,2.00
2023-02-03T22:42:22.269Z,2.00
2023-02-03T22:45:08.102Z,2.47
2023-02-03T22:47:53.769Z,2.75
2023-02-03T22:50:39.337Z,2.17
2023-02-03T22:53:28.475Z,1.83
2023-02-03T22:56:13.871Z,2.83
2023-02-03T22:58:59.176Z,3.33
2023-02-03T23:01:44.492Z,1.90
2023-02-03T23:04:29.835Z,2.03
2023-02-03T23:07:15.049Z,2.40
2023-02-03T23:10:00.554Z,2.55
2023-02-03T23:12:46.139Z,2.30
2023-02-03T23:15:31.712Z,3.60
2023-02-03T23:18:17.126Z,2.88
2023-02-03T23:21:02.385Z,2.67
2023-02-03T23:23:47.794Z,1.88
2023-02-03T23:26:33.184Z,2.30
2023-02-03T23:29:18.475Z,1.88
2023-02-03T23:32:04.884Z,2.13
2023-02-03T23:35:08.530Z,2.65
2023-02-03T23:37:53.939Z,3.45
2023-02-03T23:40:39.215Z,1.85
2023-02-03T23:43:24.589Z,2.75
2023-02-03T23:46:11.436Z,2.15
2023-02-03T23:48:56.678Z,2.30
2023-02-03T23:51:42.424Z,2.42
2023-02-03T23:54:27.410Z,2.53
2023-02-03T23:57:12.782Z,2.80
2023-02-03T23:59:58.211Z,1.80
